createdAt,value
2017-08-15T05:27:48.219Z,100.0
2017-08-15T05:28:49.838Z,100.0
2017-08-15T05:30:41.539Z,100.0
2017-08-15T05:31:43.156Z,100.0
2017-08-15T05:33:34.884Z,100.0
2017-08-15T05:34:36.506Z,100.0
2017-08-15T05:36:28.202Z,100.0
2017-08-15T05:37:29.823Z,100.0
2017-08-15T05:39:21.561Z,100.0
2017-08-15T05:40:23.186Z,100.0
2017-08-15T05:42:14.883Z,100.0
2017-08-15T05:43:16.505Z,100.0
2017-08-15T05:45:09.083Z,100.0
2017-08-15T05:46:10.701Z,100.0
2017-08-15T05:48:02.401Z,100.0
2017-08-15T05:49:04.020Z,100.0
2017-08-15T05:50:55.760Z,100.0
2017-08-15T05:51:57.385Z,100.0
2017-08-15T05:53:49.084Z,99.2
2017-08-15T05:54:50.702Z,98.2
2017-08-15T05:56:42.431Z,97.6
2017-08-15T05:57:44.053Z,97.4
2017-08-15T05:59:35.756Z,97.0
2017-08-15T06:00:37.381Z,97.0
2017-08-15T06:02:29.115Z,95.1
2017-08-15T06:03:30.738Z,95.6
2017-08-15T06:05:22.432Z,95.1
2017-08-15T06:06:24.058Z,94.2
2017-08-15T06:08:15.793Z,93.5
2017-08-15T06:09:17.411Z,93.0
2017-08-15T06:11:09.111Z,92.3
2017-08-15T06:12:10.734Z,91.1
2017-08-15T06:14:02.463Z,90.7
2017-08-15T06:15:04.086Z,90.5
2017-08-15T06:16:55.786Z,90.2
2017-08-15T06:17:57.411Z,89.9
2017-08-15T06:19:49.145Z,89.7
2017-08-15T06:20:50.761Z,89.9
2017-08-15T06:22:42.459Z,88.3
2017-08-15T06:23:44.080Z,87.9
2017-08-15T06:25:36.670Z,86.2
2017-08-15T06:26:38.287Z,84.0
2017-08-15T06:28:29.993Z,77.4
2017-08-15T06:29:31.610Z,74.9
2017-08-15T06:31:23.347Z,71.2
2017-08-15T06:32:24.973Z,68.4
2017-08-15T06:34:16.673Z,61.0
2017-08-15T06:35:18.303Z,56.6
2017-08-15T06:37:10.034Z,51.8
2017-08-15T06:38:11.655Z,51.0
2017-08-15T06:40:03.360Z,47.3
2017-08-15T06:41:04.988Z,45.5
2017-08-15T06:42:56.723Z,41.7
2017-08-15T06:43:58.347Z,40.1
2017-08-15T06:45:50.055Z,38.1
2017-08-15T06:46:51.684Z,36.2
2017-08-15T06:48:43.422Z,34.0
2017-08-15T06:49:45.046Z,33.0
2017-08-15T06:51:36.752Z,30.5
2017-08-15T06:52:38.385Z,30.7
2017-08-15T06:54:30.448Z,29.0
2017-08-15T06:55:32.078Z,28.0
2017-08-15T06:57:23.786Z,27.1
2017-08-15T06:58:25.414Z,25.8
2017-08-15T07:00:17.162Z,25.8
2017-08-15T07:01:18.798Z,25.7
2017-08-15T07:03:10.514Z,26.0
2017-08-15T07:04:12.143Z,28.3
2017-08-15T07:06:03.895Z,35.1
2017-08-15T07:07:05.527Z,37.9
2017-08-15T07:08:57.240Z,40.0
2017-08-15T07:09:58.870Z,43.0
2017-08-15T07:11:50.620Z,42.7
2017-08-15T07:12:52.250Z,36.4
2017-08-15T07:14:43.967Z,32.0
2017-08-15T07:15:45.597Z,30.9
2017-08-15T07:17:37.354Z,29.7
2017-08-15T07:18:38.981Z,29.3
2017-08-15T07:20:30.698Z,28.0
2017-08-15T07:21:32.335Z,28.0
2017-08-15T07:23:24.087Z,27.2
2017-08-15T07:24:25.719Z,27.9
2017-08-15T07:26:17.445Z,27.7
2017-08-15T07:27:19.078Z,28.4
2017-08-15T07:29:10.837Z,29.5
2017-08-15T07:30:12.467Z,30.0
2017-08-15T07:32:04.192Z,30.3
2017-08-15T07:33:05.832Z,31.0
2017-08-15T07:34:57.581Z,31.8
2017-08-15T07:35:59.217Z,31.1
2017-08-15T07:37:50.935Z,33.9
2017-08-15T07:38:52.567Z,33.9
2017-08-15T07:40:44.319Z,34.1
2017-08-15T07:41:45.950Z,34.6
2017-08-15T07:43:37.674Z,33.8
2017-08-15T07:44:39.304Z,33.4
2017-08-15T07:46:31.053Z,35.1
2017-08-15T07:47:32.682Z,32.8
2017-08-15T07:49:24.406Z,31.9
2017-08-15T07:50:26.038Z,30.7
2017-08-15T07:52:17.791Z,34.3
2017-08-15T07:53:19.425Z,33.9
2017-08-15T07:55:11.146Z,33.4
2017-08-15T07:56:12.782Z,35.7
2017-08-15T07:58:04.536Z,35.7
2017-08-15T07:59:06.167Z,37.2
2017-08-15T08:00:57.882Z,38.0
2017-08-15T08:01:59.519Z,39.6
2017-08-15T08:03:51.267Z,39.3
2017-08-15T08:04:52.904Z,39.4
2017-08-15T08:06:44.613Z,39.3
2017-08-15T08:07:46.244Z,40.2
2017-08-15T08:09:37.996Z,42.7
2017-08-15T08:10:39.628Z,41.1
2017-08-15T08:12:31.341Z,42.9
2017-08-15T08:13:32.972Z,43.7
2017-08-15T08:15:24.714Z,44.0
2017-08-15T08:16:26.350Z,44.3
2017-08-15T08:18:18.066Z,45.3
2017-08-15T08:19:19.698Z,46.3
2017-08-15T08:21:11.448Z,47.8
2017-08-15T08:22:13.082Z,47.8
2017-08-15T08:24:04.802Z,48.3
2017-08-15T08:25:06.429Z,49.0
2017-08-15T08:26:58.169Z,51.4
2017-08-15T08:27:59.802Z,51.5
2017-08-15T08:29:51.517Z,51.9
2017-08-15T08:30:53.145Z,51.6
2017-08-15T08:32:44.888Z,52.9
2017-08-15T08:33:46.519Z,53.6
2017-08-15T08:35:38.223Z,53.6
2017-08-15T08:36:39.854Z,55.0
2017-08-15T08:38:31.600Z,57.0
2017-08-15T08:39:33.223Z,55.9
2017-08-15T08:41:24.937Z,57.2
2017-08-15T08:42:26.565Z,58.0
2017-08-15T08:44:18.310Z,59.0
2017-08-15T08:45:19.934Z,59.3
2017-08-15T08:47:11.646Z,60.9
2017-08-15T08:48:13.274Z,61.0
2017-08-15T08:50:05.019Z,61.7
2017-08-15T08:51:06.644Z,61.6
2017-08-15T08:52:58.347Z,61.3
2017-08-15T08:53:59.971Z,61.9
2017-08-15T08:55:51.712Z,62.0
2017-08-15T08:56:53.343Z,62.1
2017-08-15T08:58:45.052Z,62.7
2017-08-15T08:59:46.673Z,62.5
2017-08-15T09:01:38.411Z,61.8
2017-08-15T09:02:40.038Z,62.6
2017-08-15T09:04:31.746Z,61.5
2017-08-15T09:05:33.384Z,60.5
2017-08-15T09:07:25.120Z,60.1
2017-08-15T09:08:26.749Z,61.1
2017-08-15T09:10:18.457Z,59.3
2017-08-15T09:11:20.085Z,59.4
2017-08-15T09:13:12.672Z,59.5
2017-08-15T09:14:14.296Z,59.1
2017-08-15T09:16:06.006Z,59.7
2017-08-15T09:17:07.631Z,57.7
2017-08-15T09:19:00.222Z,57.9
2017-08-15T09:20:01.851Z,58.2
2017-08-15T09:21:53.557Z,57.9
2017-08-15T09:22:55.181Z,58.4
2017-08-15T09:24:46.928Z,58.1
2017-08-15T09:25:48.554Z,57.8
2017-08-15T09:27:40.260Z,57.8
2017-08-15T09:28:41.892Z,57.6
2017-08-15T09:30:33.633Z,58.1
2017-08-15T09:31:35.262Z,58.7
2017-08-15T09:33:27.981Z,58.4
2017-08-15T09:34:29.603Z,58.6
2017-08-15T09:36:21.339Z,58.5
2017-08-15T09:37:22.960Z,58.5
2017-08-15T09:39:14.667Z,59.0
2017-08-15T09:40:16.291Z,59.1
2017-08-15T09:42:08.038Z,59.1
2017-08-15T09:43:09.666Z,58.7
2017-08-15T09:45:01.380Z,60.5
2017-08-15T09:46:03.001Z,59.9
2017-08-15T09:47:54.741Z,61.2
2017-08-15T09:48:56.373Z,60.6
2017-08-15T09:50:48.091Z,60.2
2017-08-15T09:51:49.713Z,61.0
2017-08-15T09:53:41.461Z,60.5
2017-08-15T09:54:43.090Z,60.9
2017-08-15T09:56:35.799Z,62.2
2017-08-15T09:57:37.427Z,62.2
2017-08-15T09:59:29.162Z,61.8
2017-08-15T10:00:30.790Z,62.2
2017-08-15T10:02:22.494Z,62.1
2017-08-15T10:03:24.119Z,61.8
2017-08-15T10:05:15.863Z,62.8
2017-08-15T10:06:17.489Z,62.4
2017-08-15T10:08:09.194Z,62.9
2017-08-15T10:09:10.825Z,64.0
2017-08-15T10:11:02.568Z,63.7
2017-08-15T10:12:04.196Z,64.0
2017-08-15T10:13:55.907Z,65.9
2017-08-15T10:14:57.527Z,65.8
2017-08-15T10:16:49.268Z,65.9
2017-08-15T10:17:50.892Z,66.6
2017-08-15T10:19:42.598Z,66.9
2017-08-15T10:20:44.220Z,67.0
2017-08-15T10:22:35.952Z,66.4
2017-08-15T10:23:37.578Z,66.5
2017-08-15T10:25:29.284Z,67.9
2017-08-15T10:26:30.910Z,69.6
2017-08-15T10:28:23.493Z,69.5
2017-08-15T10:29:25.115Z,70.5
2017-08-15T10:31:16.820Z,72.7
2017-08-15T10:32:18.441Z,72.3
2017-08-15T10:34:10.179Z,74.5
2017-08-15T10:35:11.805Z,76.0
2017-08-15T10:37:03.513Z,77.4
2017-08-15T10:38:05.132Z,77.8
2017-08-15T10:39:56.873Z,75.4
2017-08-15T10:40:58.501Z,76.0
2017-08-15T10:42:50.214Z,77.8
2017-08-15T10:43:51.831Z,76.8
2017-08-15T10:45:43.576Z,78.3
2017-08-15T10:46:45.202Z,77.6
2017-08-15T10:48:36.908Z,78.6
2017-08-15T10:49:38.526Z,79.8
2017-08-15T10:51:30.260Z,81.0
2017-08-15T10:52:31.879Z,82.0
2017-08-15T10:54:23.587Z,81.5
2017-08-15T10:55:25.210Z,81.6
2017-08-15T10:57:16.954Z,83.5
2017-08-15T10:58:18.580Z,84.0
2017-08-15T11:00:10.284Z,84.4
2017-08-15T11:01:11.904Z,84.3
2017-08-15T11:03:03.642Z,85.0
2017-08-15T11:04:05.261Z,85.2
2017-08-15T11:05:56.988Z,86.3
2017-08-15T11:06:58.612Z,85.3
2017-08-15T11:08:00.233Z,85.0
2017-08-15T11:09:01.857Z,85.0
2017-08-15T11:10:03.484Z,84.1
2017-08-15T11:11:05.119Z,83.6
2017-08-15T11:12:06.746Z,84.0
2017-08-15T11:13:08.365Z,81.7
2017-08-15T11:14:09.993Z,80.9
2017-08-15T11:15:11.618Z,81.4
2017-08-15T11:16:13.246Z,78.9
2017-08-15T11:17:14.872Z,78.2
2017-08-15T11:18:16.495Z,79.1
2017-08-15T11:19:18.130Z,78.8
2017-08-15T11:20:19.752Z,79.3
2017-08-15T11:21:21.374Z,79.6
2017-08-15T11:22:23.001Z,80.1
2017-08-15T11:23:24.634Z,79.9
2017-08-15T11:24:26.254Z,79.5
2017-08-15T11:25:27.880Z,79.0
2017-08-15T11:26:29.512Z,79.3
2017-08-15T11:27:31.143Z,76.8
2017-08-15T11:28:32.763Z,75.5
2017-08-15T11:29:34.387Z,74.8
2017-08-15T11:30:36.016Z,73.7
2017-08-15T11:31:37.643Z,71.9
2017-08-15T11:32:39.275Z,71.3
2017-08-15T11:33:40.898Z,69.8
2017-08-15T11:34:42.528Z,69.3
2017-08-15T11:35:44.153Z,64.9
2017-08-15T11:36:45.779Z,66.6
2017-08-15T11:37:47.402Z,64.5
2017-08-15T11:38:49.033Z,65.7
2017-08-15T11:39:50.658Z,63.1
2017-08-15T11:40:52.293Z,61.9
2017-08-15T11:41:53.929Z,56.8
2017-08-15T11:42:55.558Z,55.1
2017-08-15T11:43:57.189Z,56.1
2017-08-15T11:44:58.817Z,57.1
2017-08-15T11:46:00.448Z,56.8
2017-08-15T11:47:02.088Z,55.0
2017-08-15T11:48:03.720Z,56.6
2017-08-15T11:49:05.352Z,53.9
2017-08-15T11:50:06.992Z,53.1
2017-08-15T11:51:08.613Z,56.2
2017-08-15T11:52:10.244Z,52.0
2017-08-15T11:53:11.874Z,51.3
2017-08-15T11:54:13.506Z,50.9
2017-08-15T11:55:15.140Z,51.6
2017-08-15T11:56:16.773Z,51.2
2017-08-15T11:57:18.402Z,54.4
2017-08-15T11:58:20.031Z,53.0
2017-08-15T11:59:21.662Z,52.2
2017-08-15T12:00:23.294Z,53.0
2017-08-15T12:01:24.924Z,53.2
2017-08-15T12:02:26.555Z,53.2
2017-08-15T12:03:28.195Z,56.1
2017-08-15T12:04:29.816Z,56.6
2017-08-15T12:05:31.449Z,54.7
2017-08-15T12:06:33.079Z,54.7
2017-08-15T12:07:34.711Z,54.1
2017-08-15T12:08:36.341Z,53.8
2017-08-15T12:09:37.977Z,53.4
2017-08-15T12:10:39.608Z,54.7
2017-08-15T12:11:41.237Z,54.3
2017-08-15T12:12:42.867Z,52.2
2017-08-15T12:13:44.496Z,53.1
2017-08-15T12:14:46.128Z,51.6
2017-08-15T12:15:47.759Z,50.2
2017-08-15T12:16:49.391Z,50.9
2017-08-15T12:17:51.025Z,49.6
2017-08-15T12:18:52.653Z,50.2
2017-08-15T12:19:54.285Z,45.5
2017-08-15T12:20:55.913Z,42.5
2017-08-15T12:21:57.550Z,46.1
2017-08-15T12:22:59.177Z,45.7
2017-08-15T12:24:00.809Z,42.7
2017-08-15T12:25:02.445Z,42.2
2017-08-15T12:26:04.077Z,39.3
2017-08-15T12:27:05.706Z,41.6
2017-08-15T12:28:07.338Z,35.9
2017-08-15T12:29:08.970Z,36.0
2017-08-15T12:30:10.602Z,35.0
2017-08-15T12:31:12.237Z,34.6
2017-08-15T12:32:13.869Z,36.7
2017-08-15T12:33:15.501Z,35.7
2017-08-15T12:34:17.131Z,37.6
2017-08-15T12:35:18.762Z,38.6
2017-08-15T12:36:20.395Z,37.5
2017-08-15T12:37:22.030Z,36.0
2017-08-15T12:38:23.665Z,33.5
2017-08-15T12:39:25.300Z,31.9
2017-08-15T12:40:26.930Z,31.0
2017-08-15T12:41:28.561Z,30.4
2017-08-15T12:42:30.192Z,31.6
2017-08-15T12:43:31.830Z,29.8
2017-08-15T12:44:33.468Z,29.8
2017-08-15T12:45:35.098Z,33.7
2017-08-15T12:46:36.734Z,31.4
2017-08-15T12:47:38.367Z,29.8
2017-08-15T12:48:40.006Z,31.2
2017-08-15T12:49:41.638Z,30.1
2017-08-15T12:50:43.270Z,30.0
2017-08-15T12:51:44.904Z,30.1
2017-08-15T12:52:46.540Z,29.8
2017-08-15T12:53:48.175Z,29.7
2017-08-15T12:54:49.805Z,29.1
2017-08-15T12:55:51.437Z,30.2
2017-08-15T12:56:53.069Z,29.3
2017-08-15T12:57:54.703Z,27.7
2017-08-15T12:58:56.348Z,29.2
2017-08-15T12:59:57.972Z,30.5
2017-08-15T13:00:59.609Z,28.4
2017-08-15T13:02:01.247Z,26.8
2017-08-15T13:03:02.874Z,27.6
2017-08-15T13:04:04.506Z,30.6
2017-08-15T13:05:06.142Z,28.8
2017-08-15T13:06:07.776Z,27.6
2017-08-15T13:07:09.411Z,29.4
2017-08-15T13:08:11.050Z,29.6
2017-08-15T13:09:12.683Z,31.5
2017-08-15T13:10:14.316Z,32.1
2017-08-15T13:11:15.951Z,32.2
2017-08-15T13:12:17.583Z,33.5
2017-08-15T13:13:19.219Z,34.6
2017-08-15T13:14:20.854Z,32.7
2017-08-15T13:15:22.490Z,33.8
2017-08-15T13:16:24.124Z,34.2
2017-08-15T13:17:25.755Z,33.8
2017-08-15T13:18:27.389Z,34.3
2017-08-15T13:19:29.025Z,35.7
2017-08-15T13:20:30.656Z,35.6
2017-08-15T13:21:32.292Z,36.7
2017-08-15T13:22:33.925Z,37.8
2017-08-15T13:23:35.555Z,37.8
2017-08-15T13:24:37.187Z,39.0
2017-08-15T13:25:38.819Z,38.9
2017-08-15T13:26:40.452Z,39.8
2017-08-15T13:27:42.083Z,40.0
2017-08-15T13:28:43.717Z,40.6
2017-08-15T13:29:45.350Z,40.2
2017-08-15T13:30:46.980Z,41.3
2017-08-15T13:31:48.610Z,41.6
2017-08-15T13:32:50.238Z,41.8
2017-08-15T13:33:51.870Z,42.6
2017-08-15T13:34:53.502Z,42.3
2017-08-15T13:35:55.136Z,42.5
2017-08-15T13:36:56.767Z,43.7
2017-08-15T13:37:58.394Z,43.9
2017-08-15T13:39:00.024Z,44.7
2017-08-15T13:40:01.660Z,44.9
2017-08-15T13:41:03.294Z,45.1
2017-08-15T13:42:04.931Z,46.7
2017-08-15T13:43:06.560Z,46.3
2017-08-15T13:44:08.195Z,46.2
2017-08-15T13:45:09.822Z,46.8
2017-08-15T13:46:11.452Z,48.0
2017-08-15T13:47:13.086Z,47.7
2017-08-15T13:48:14.714Z,48.2
2017-08-15T13:49:16.345Z,47.8
2017-08-15T13:50:18.042Z,48.3
2017-08-15T13:51:19.656Z,48.4
2017-08-15T13:52:21.291Z,48.8
2017-08-15T13:53:22.926Z,49.2
2017-08-15T13:54:24.557Z,49.1
2017-08-15T13:55:26.186Z,50.2
2017-08-15T13:56:27.820Z,50.3
2017-08-15T13:57:29.455Z,50.0
2017-08-15T13:58:31.085Z,50.9
2017-08-15T13:59:32.715Z,51.6
2017-08-15T14:00:34.345Z,50.5
2017-08-15T14:01:35.974Z,52.0
2017-08-15T14:02:37.605Z,51.5
2017-08-15T14:03:39.236Z,51.3
2017-08-15T14:04:40.871Z,52.2
2017-08-15T14:05:42.533Z,51.9
2017-08-15T14:06:44.163Z,52.7
2017-08-15T14:07:45.810Z,52.7
2017-08-15T14:08:47.441Z,52.8
2017-08-15T14:09:49.085Z,52.7
2017-08-15T14:10:50.737Z,52.9
2017-08-15T14:11:52.369Z,53.6
2017-08-15T14:12:53.999Z,53.5
2017-08-15T14:13:55.627Z,53.7
2017-08-15T14:14:57.268Z,53.5
2017-08-15T14:15:58.902Z,53.9
2017-08-15T14:17:00.533Z,54.6
2017-08-15T14:18:02.165Z,54.0
2017-08-15T14:19:03.789Z,54.1
2017-08-15T14:20:05.422Z,54.5
2017-08-15T14:21:07.042Z,54.5
2017-08-15T14:22:08.672Z,53.9
2017-08-15T14:23:10.299Z,54.4
2017-08-15T14:24:11.922Z,53.9
2017-08-15T14:25:13.555Z,53.6
2017-08-15T14:26:15.179Z,54.2
2017-08-15T14:27:16.810Z,53.7
2017-08-15T14:28:18.437Z,54.3
2017-08-15T14:29:20.059Z,55.5
2017-08-15T14:30:21.691Z,56.0
2017-08-15T14:31:23.314Z,57.4
2017-08-15T14:32:24.945Z,56.5
2017-08-15T14:33:26.568Z,57.0
2017-08-15T14:34:28.197Z,57.1
2017-08-15T14:35:29.825Z,57.3
2017-08-15T14:36:31.449Z,57.7
2017-08-15T14:37:33.080Z,57.7
2017-08-15T14:38:34.708Z,57.8
2017-08-15T14:39:36.333Z,57.8
2017-08-15T14:40:37.958Z,58.5
2017-08-15T14:41:39.592Z,58.8
2017-08-15T14:42:41.218Z,58.6
2017-08-15T14:43:42.843Z,58.8
2017-08-15T14:44:44.471Z,59.7
2017-08-15T14:45:46.094Z,59.1
2017-08-15T14:46:47.726Z,59.7
2017-08-15T14:47:49.350Z,60.0
2017-08-15T14:48:50.977Z,59.6
2017-08-15T14:49:52.603Z,59.9
2017-08-15T14:50:54.232Z,59.9
2017-08-15T14:51:55.867Z,59.4
2017-08-15T14:52:57.491Z,59.3
2017-08-15T14:53:59.123Z,59.5
2017-08-15T14:55:00.753Z,59.8
2017-08-15T14:56:02.379Z,60.2
2017-08-15T14:57:04.011Z,59.4
2017-08-15T14:58:05.630Z,60.3
2017-08-15T14:59:07.257Z,59.5
2017-08-15T15:00:08.888Z,60.3
2017-08-15T15:01:10.513Z,59.2
2017-08-15T15:02:12.138Z,60.1
2017-08-15T15:03:13.773Z,60.5
2017-08-15T15:04:15.399Z,60.0
2017-08-15T15:05:17.018Z,60.2
2017-08-15T15:06:18.643Z,61.0
2017-08-15T15:07:20.268Z,60.9
2017-08-15T15:08:21.898Z,61.4
2017-08-15T15:09:23.523Z,61.0
2017-08-15T15:10:25.155Z,61.5
2017-08-15T15:11:26.781Z,62.3
2017-08-15T15:12:28.404Z,62.3
2017-08-15T15:13:30.026Z,62.7
2017-08-15T15:14:31.658Z,63.5
2017-08-15T15:15:33.286Z,63.8
2017-08-15T15:16:34.909Z,63.4
2017-08-15T15:17:36.541Z,64.1
2017-08-15T15:18:38.166Z,64.1
2017-08-15T15:19:39.787Z,64.3
2017-08-15T15:20:41.410Z,64.7
2017-08-15T15:21:43.034Z,65.1
2017-08-15T15:22:44.666Z,64.8
2017-08-15T15:23:46.294Z,65.2
2017-08-15T15:24:47.918Z,65.3
2017-08-15T15:25:49.542Z,65.0
2017-08-15T15:26:51.170Z,64.7
2017-08-15T15:27:52.797Z,64.3
2017-08-15T15:28:54.420Z,64.7
2017-08-15T15:29:56.050Z,64.8
2017-08-15T15:30:57.673Z,65.2
2017-08-15T15:31:59.301Z,65.6
2017-08-15T15:33:00.928Z,66.0
2017-08-15T15:34:02.555Z,65.8
2017-08-15T15:35:04.174Z,65.5
2017-08-15T15:36:05.797Z,65.5
2017-08-15T15:37:07.428Z,65.8
2017-08-15T15:38:09.050Z,65.7
2017-08-15T15:39:10.681Z,66.0
2017-08-15T15:40:12.313Z,66.6
2017-08-15T15:41:13.927Z,65.9
2017-08-15T15:42:15.554Z,66.4
2017-08-15T15:43:17.183Z,66.0
2017-08-15T15:44:18.813Z,65.9
2017-08-15T15:45:20.435Z,66.3
2017-08-15T15:46:22.062Z,67.0
2017-08-15T15:47:23.688Z,66.9
2017-08-15T15:48:25.311Z,67.3
2017-08-15T15:49:26.934Z,67.4
2017-08-15T15:50:28.558Z,67.0
2017-08-15T15:51:30.190Z,67.8
2017-08-15T15:52:31.814Z,67.8
2017-08-15T15:53:33.440Z,67.7
2017-08-15T15:54:35.061Z,67.9
2017-08-15T15:55:36.685Z,67.6
2017-08-15T15:56:38.315Z,67.7
2017-08-15T15:57:39.940Z,68.1
2017-08-15T15:58:41.563Z,68.2
2017-08-15T15:59:43.186Z,67.5
2017-08-15T16:00:44.818Z,68.0
2017-08-15T16:01:46.442Z,68.1
2017-08-15T16:02:48.062Z,68.4
2017-08-15T16:03:49.686Z,69.1
2017-08-15T16:04:51.312Z,68.4
2017-08-15T16:05:52.940Z,68.3
2017-08-15T16:06:54.565Z,68.3
2017-08-15T16:07:56.193Z,68.4
2017-08-15T16:08:57.819Z,68.2
2017-08-15T16:09:59.447Z,68.6
2017-08-15T16:11:01.079Z,68.9
2017-08-15T16:12:02.704Z,68.8
2017-08-15T16:13:04.326Z,68.7
2017-08-15T16:14:05.952Z,69.6
2017-08-15T16:15:07.583Z,70.7
2017-08-15T16:16:09.212Z,70.0
2017-08-15T16:17:10.828Z,72.1
2017-08-15T16:18:12.449Z,71.2
2017-08-15T16:19:14.073Z,71.6
2017-08-15T16:20:15.698Z,72.2
2017-08-15T16:21:17.328Z,72.2
2017-08-15T16:22:18.959Z,72.7
2017-08-15T16:23:20.577Z,72.7
2017-08-15T16:24:22.201Z,72.8
2017-08-15T16:25:23.828Z,72.5
2017-08-15T16:26:25.456Z,72.4
2017-08-15T16:27:27.084Z,72.4
2017-08-15T16:28:28.707Z,73.9
2017-08-15T16:29:30.333Z,76.0
2017-08-15T16:30:31.961Z,78.4
2017-08-15T16:31:33.586Z,79.1
2017-08-15T16:32:35.206Z,79.6
2017-08-15T16:33:37.213Z,80.4
2017-08-15T16:34:38.856Z,81.4
2017-08-15T16:35:40.488Z,83.7
2017-08-15T16:36:42.123Z,84.3
2017-08-15T16:37:43.758Z,82.2
2017-08-15T16:38:45.412Z,83.4
2017-08-15T16:39:47.040Z,84.5
2017-08-15T16:40:48.663Z,83.1
2017-08-15T16:41:50.289Z,84.1
2017-08-15T16:42:51.918Z,85.2
2017-08-15T16:43:53.541Z,84.2
2017-08-15T16:44:55.169Z,83.6
2017-08-15T16:45:56.795Z,84.5
2017-08-15T16:46:58.416Z,85.0
2017-08-15T16:48:00.041Z,86.0
2017-08-15T16:49:01.672Z,85.7
2017-08-15T16:50:03.310Z,85.9
2017-08-15T16:51:04.933Z,84.9
2017-08-15T16:52:06.553Z,86.3
2017-08-15T16:53:08.182Z,87.1
2017-08-15T16:54:09.809Z,85.1
2017-08-15T16:55:11.433Z,85.9
2017-08-15T16:56:13.067Z,84.8
2017-08-15T16:57:14.686Z,84.9
2017-08-15T16:58:16.311Z,86.7
2017-08-15T16:59:17.968Z,87.2
2017-08-15T17:00:19.593Z,86.1
2017-08-15T17:01:21.212Z,85.5
2017-08-15T17:02:22.832Z,86.0
2017-08-15T17:03:24.464Z,86.5
2017-08-15T17:04:26.085Z,85.5
2017-08-15T17:05:27.709Z,87.1
2017-08-15T17:06:29.335Z,87.2
2017-08-15T17:07:30.962Z,86.1
2017-08-15T17:08:32.586Z,85.7
2017-08-15T17:09:34.214Z,86.6
2017-08-15T17:10:35.836Z,85.3
2017-08-15T17:11:37.462Z,86.0
2017-08-15T17:12:39.095Z,84.6
2017-08-15T17:13:40.722Z,84.8
2017-08-15T17:14:42.346Z,85.1
2017-08-15T17:15:43.975Z,85.1
2017-08-15T17:16:45.599Z,86.7
2017-08-15T17:17:47.219Z,86.5
2017-08-15T17:18:48.846Z,87.1
2017-08-15T17:19:50.476Z,86.4
2017-08-15T17:20:52.095Z,86.1
2017-08-15T17:21:53.720Z,84.7
2017-08-15T17:22:55.349Z,85.4
2017-08-15T17:23:56.972Z,86.2
2017-08-15T17:24:58.591Z,85.7
2017-08-15T17:26:00.219Z,84.7
2017-08-15T17:27:01.851Z,84.5
2017-08-15T17:28:03.474Z,84.8
2017-08-15T17:29:05.093Z,85.5
2017-08-15T17:30:06.718Z,85.2
2017-08-15T17:31:08.435Z,84.3
2017-08-15T17:32:10.172Z,83.8
2017-08-15T17:33:11.838Z,83.8
2017-08-15T17:34:13.468Z,83.6
2017-08-15T17:35:15.096Z,83.7
2017-08-15T17:36:16.722Z,83.5
2017-08-15T17:37:18.352Z,83.1
2017-08-15T17:38:20.002Z,82.9
2017-08-15T17:39:21.636Z,81.7
2017-08-15T17:40:23.339Z,81.2
2017-08-15T17:41:25.022Z,80.4
2017-08-15T17:42:26.667Z,81.0
2017-08-15T17:43:28.357Z,81.6
2017-08-15T17:44:30.006Z,81.0
2017-08-15T17:45:31.758Z,81.0
2017-08-15T17:46:33.439Z,80.3
2017-08-15T17:47:35.106Z,80.2
2017-08-15T17:48:36.735Z,80.3
2017-08-15T17:49:39.057Z,80.5
2017-08-15T17:50:40.711Z,80.5
2017-08-15T17:51:42.419Z,81.0
2017-08-15T17:52:44.047Z,80.6
2017-08-15T17:53:45.678Z,81.6
2017-08-15T17:54:47.323Z,81.3
2017-08-15T17:55:48.956Z,81.1
2017-08-15T17:56:50.598Z,80.5
2017-08-15T17:57:52.303Z,80.8
2017-08-15T17:58:53.956Z,81.2
2017-08-15T17:59:55.613Z,81.7
2017-08-15T18:00:57.292Z,80.6
2017-08-15T18:01:58.971Z,81.1
2017-08-15T18:03:00.748Z,80.9
2017-08-15T18:04:02.379Z,81.5
2017-08-15T18:05:04.117Z,81.0
2017-08-15T18:06:05.750Z,80.6
2017-08-15T18:07:07.506Z,80.3
2017-08-15T18:08:09.187Z,80.6
2017-08-15T18:09:10.906Z,81.1
2017-08-15T18:10:12.555Z,80.2
2017-08-15T18:11:14.317Z,80.3
2017-08-15T18:12:15.989Z,80.8
2017-08-15T18:13:17.675Z,80.1
2017-08-15T18:14:19.345Z,79.9
2017-08-15T18:15:21.026Z,80.1
2017-08-15T18:16:22.706Z,80.5
2017-08-15T18:17:25.239Z,80.9
2017-08-15T18:18:26.952Z,80.6
2017-08-15T18:19:28.593Z,79.9
2017-08-15T18:20:30.239Z,80.2
2017-08-15T18:21:31.954Z,79.9
2017-08-15T18:22:33.584Z,79.7
2017-08-15T18:23:35.300Z,79.1
2017-08-15T18:24:36.944Z,79.4
2017-08-15T18:25:38.640Z,79.4
2017-08-15T18:26:40.398Z,79.6
2017-08-15T18:27:42.164Z,79.1
2017-08-15T18:28:43.882Z,79.3
2017-08-15T18:29:45.729Z,79.2
2017-08-15T18:30:47.597Z,79.5
2017-08-15T18:33:01.068Z,79.2
2017-08-15T18:34:02.796Z,79.7
2017-08-15T18:35:04.488Z,80.0
2017-08-15T18:36:06.526Z,80.1
2017-08-15T18:37:08.204Z,79.7
2017-08-15T18:38:10.352Z,80.2
2017-08-15T18:39:12.054Z,80.0
2017-08-15T18:40:13.733Z,79.7
2017-08-15T18:41:15.798Z,80.0
2017-08-15T18:42:17.470Z,79.8
2017-08-15T18:43:19.099Z,79.3
2017-08-15T18:44:20.743Z,80.1
2017-08-15T18:45:22.473Z,80.1
2017-08-15T18:46:24.198Z,79.8
2017-08-15T18:47:25.825Z,79.2
2017-08-15T18:48:27.544Z,78.8
2017-08-15T18:49:29.212Z,79.3
2017-08-15T18:50:31.013Z,79.6
2017-08-15T18:51:32.773Z,79.4
2017-08-15T18:52:34.471Z,79.0
2017-08-15T18:53:36.192Z,79.3
2017-08-15T18:54:37.878Z,80.0
2017-08-15T18:55:39.605Z,79.1
2017-08-15T18:56:41.340Z,80.3
2017-08-15T18:57:43.078Z,79.9
2017-08-15T18:58:44.751Z,79.2
2017-08-15T18:59:46.467Z,79.5
2017-08-15T19:00:48.192Z,79.9
2017-08-15T19:01:49.849Z,79.8
2017-08-15T19:02:51.584Z,79.8
2017-08-15T19:03:53.259Z,79.4
2017-08-15T19:04:54.932Z,79.8
2017-08-15T19:05:56.575Z,79.4
2017-08-15T19:06:58.204Z,79.7
2017-08-15T19:07:59.900Z,80.2
2017-08-15T19:09:01.658Z,79.9
2017-08-15T19:10:03.293Z,79.7
2017-08-15T19:11:04.996Z,79.8
2017-08-15T19:12:06.721Z,79.8
2017-08-15T19:13:08.349Z,80.3
2017-08-15T19:14:10.129Z,79.8
2017-08-15T19:15:11.812Z,80.1
2017-08-15T19:16:13.473Z,80.3
2017-08-15T19:17:15.128Z,80.1
2017-08-15T19:18:16.805Z,79.9
2017-08-15T19:19:18.513Z,81.2
2017-08-15T19:20:20.194Z,79.9
2017-08-15T19:21:21.848Z,79.9
2017-08-15T19:22:23.547Z,80.1
2017-08-15T19:23:25.344Z,80.3
2017-08-15T19:24:27.028Z,80.2
2017-08-15T19:25:28.785Z,80.3
2017-08-15T19:26:30.534Z,80.0
2017-08-15T19:27:32.202Z,79.9
2017-08-15T19:28:33.848Z,79.5
2017-08-15T19:29:35.538Z,80.1
2017-08-15T19:30:37.310Z,80.2
2017-08-15T19:31:39.029Z,80.4
2017-08-15T19:32:40.776Z,80.3
2017-08-15T19:33:42.471Z,80.4
2017-08-15T19:34:44.195Z,81.1
2017-08-15T19:35:45.878Z,80.8
2017-08-15T19:36:47.549Z,81.1
2017-08-15T19:37:49.268Z,80.9
2017-08-15T19:38:50.984Z,80.9
2017-08-15T19:39:52.691Z,80.7
2017-08-15T19:40:54.344Z,80.4
2017-08-15T19:41:56.097Z,80.7
2017-08-15T19:42:57.859Z,81.2
2017-08-15T19:43:59.655Z,81.7
2017-08-15T19:45:01.474Z,82.0
2017-08-15T19:46:03.228Z,81.9
2017-08-15T19:47:04.965Z,81.5
2017-08-15T19:48:06.819Z,82.2
2017-08-15T19:49:08.645Z,82.5
2017-08-15T19:50:10.424Z,82.2
2017-08-15T19:51:12.180Z,82.1
2017-08-15T19:52:14.032Z,82.8
2017-08-15T19:53:15.774Z,82.3
2017-08-15T19:54:17.598Z,83.5
2017-08-15T19:55:19.418Z,82.7
2017-08-15T19:56:21.154Z,82.7
2017-08-15T19:57:22.941Z,83.5
2017-08-15T19:58:24.579Z,83.7
2017-08-15T19:59:26.331Z,83.7
2017-08-15T20:00:28.074Z,83.2
2017-08-15T20:01:29.785Z,83.1
2017-08-15T20:02:31.526Z,83.2
2017-08-15T20:03:33.208Z,83.3
2017-08-15T20:04:36.487Z,83.1
2017-08-15T20:05:38.184Z,82.4
2017-08-15T20:06:39.810Z,83.1
2017-08-15T20:07:41.509Z,83.1
2017-08-15T20:08:43.288Z,83.3
2017-08-15T20:09:45.020Z,83.3
2017-08-15T20:10:46.768Z,83.7
2017-08-15T20:11:54.952Z,83.1
2017-08-15T20:12:56.635Z,84.2
2017-08-15T20:13:58.263Z,84.1
2017-08-15T20:15:00.900Z,83.9
2017-08-15T20:16:02.533Z,83.9
2017-08-15T20:17:04.267Z,83.5
2017-08-15T20:18:05.944Z,83.9
2017-08-15T20:19:07.657Z,84.1
2017-08-15T20:20:09.361Z,84.1
2017-08-15T20:21:11.064Z,84.0
2017-08-15T20:22:12.798Z,84.0
2017-08-15T20:23:14.521Z,84.4
2017-08-15T20:24:16.210Z,83.6
2017-08-15T20:25:17.897Z,84.6
2017-08-15T20:26:19.609Z,84.1
2017-08-15T20:27:22.352Z,84.9
2017-08-15T20:28:24.150Z,83.9
2017-08-15T20:29:25.957Z,84.9
2017-08-15T20:30:27.720Z,84.3
2017-08-15T20:31:29.504Z,84.3
2017-08-15T20:32:31.301Z,84.5
2017-08-15T20:33:33.067Z,84.4
2017-08-15T20:34:34.786Z,84.5
2017-08-15T20:35:36.579Z,84.7
2017-08-15T20:36:38.346Z,84.6
2017-08-15T20:37:39.947Z,84.7
2017-08-15T20:38:41.671Z,84.9
2017-08-15T20:39:43.449Z,84.9
2017-08-15T20:40:45.083Z,85.1
2017-08-15T20:41:46.829Z,85.1
2017-08-15T20:42:48.505Z,85.4
2017-08-15T20:43:50.237Z,85.3
2017-08-15T20:44:51.913Z,84.8
2017-08-15T20:45:53.586Z,85.4